sensor_id;sensor_type;location;lat;lon;timestamp;temperature;humidity
13682;DHT22;6913;49.892;7.936;2023-06-10T00:00:23;20.50;99.90
13682;DHT22;6913;49.892;7.936;2023-06-10T00:02:49;20.40;99.90
13682;DHT22;6913;49.892;7.936;2023-06-10T00:05:16;20.30;99.90
13682;DHT22;6913;49.892;7.936;2023-06-10T00:07:46;20.10;99.90
13682;DHT22;6913;49.892;7.936;2023-06-10T00:10:13;19.90;99.90
13682;DHT22;6913;49.892;7.936;2023-06-10T00:12:41;19.90;99.90
13682;DHT22;6913;49.892;7.936;2023-06-10T00:15:09;19.90;99.90
13682;DHT22;6913;49.892;7.936;2023-06-10T00:17:38;19.80;99.90
13682;DHT22;6913;49.892;7.936;2023-06-10T00:20:07;20.00;99.90
13682;DHT22;6913;49.892;7.936;2023-06-10T00:22:36;19.50;99.90
13682;DHT22;6913;49.892;7.936;2023-06-10T00:25:03;19.60;99.90
13682;DHT22;6913;49.892;7.936;2023-06-10T00:27:30;19.30;99.90
13682;DHT22;6913;49.892;7.936;2023-06-10T00:30:01;19.20;99.90
13682;DHT22;6913;49.892;7.936;2023-06-10T00:32:29;19.10;99.90
13682;DHT22;6913;49.892;7.936;2023-06-10T00:34:57;19.00;99.90
13682;DHT22;6913;49.892;7.936;2023-06-10T00:37:24;19.00;99.90
13682;DHT22;6913;49.892;7.936;2023-06-10T00:39:51;19.10;99.90
13682;DHT22;6913;49.892;7.936;2023-06-10T00:42:18;19.10;99.90
13682;DHT22;6913;49.892;7.936;2023-06-10T00:44:45;19.20;99.90
13682;DHT22;6913;49.892;7.936;2023-06-10T00:47:12;19.50;99.90
13682;DHT22;6913;49.892;7.936;2023-06-10T00:49:39;19.50;99.90
13682;DHT22;6913;49.892;7.936;2023-06-10T00:52:08;19.50;99.90
13682;DHT22;6913;49.892;7.936;2023-06-10T00:54:36;19.40;99.90
13682;DHT22;6913;49.892;7.936;2023-06-10T00:57:04;19.50;99.90
13682;DHT22;6913;49.892;7.936;2023-06-10T00:59:32;19.50;99.90
13682;DHT22;6913;49.892;7.936;2023-06-10T01:01:59;19.50;99.90
13682;DHT22;6913;49.892;7.936;2023-06-10T01:04:26;19.50;99.90
13682;DHT22;6913;49.892;7.936;2023-06-10T01:06:57;19.20;99.90
13682;DHT22;6913;49.892;7.936;2023-06-10T01:09:33;19.00;99.90
13682;DHT22;6913;49.892;7.936;2023-06-10T01:12:06;18.90;99.90
13682;DHT22;6913;49.892;7.936;2023-06-10T01:14:36;19.00;99.90
13682;DHT22;6913;49.892;7.936;2023-06-10T01:17:04;19.10;99.90
13682;DHT22;6913;49.892;7.936;2023-06-10T01:19:32;19.10;99.90
13682;DHT22;6913;49.892;7.936;2023-06-10T01:22:00;19.10;99.90
13682;DHT22;6913;49.892;7.936;2023-06-10T01:24:27;19.20;99.90
13682;DHT22;6913;49.892;7.936;2023-06-10T01:27:00;19.10;99.90
13682;DHT22;6913;49.892;7.936;2023-06-10T01:29:33;19.00;99.90
13682;DHT22;6913;49.892;7.936;2023-06-10T01:32:08;19.00;99.90
13682;DHT22;6913;49.892;7.936;2023-06-10T01:34:39;19.00;99.90
13682;DHT22;6913;49.892;7.936;2023-06-10T01:37:13;19.10;99.90
13682;DHT22;6913;49.892;7.936;2023-06-10T01:39:42;19.00;99.90
13682;DHT22;6913;49.892;7.936;2023-06-10T01:42:10;18.90;99.90
13682;DHT22;6913;49.892;7.936;2023-06-10T01:44:39;18.90;99.90
13682;DHT22;6913;49.892;7.936;2023-06-10T01:47:06;18.60;99.90
13682;DHT22;6913;49.892;7.936;2023-06-10T01:49:33;18.70;99.90
13682;DHT22;6913;49.892;7.936;2023-06-10T01:52:00;18.70;99.90
13682;DHT22;6913;49.892;7.936;2023-06-10T01:54:28;18.80;99.90
13682;DHT22;6913;49.892;7.936;2023-06-10T01:56:55;18.70;99.90
13682;DHT22;6913;49.892;7.936;2023-06-10T01:59:22;18.70;99.90
13682;DHT22;6913;49.892;7.936;2023-06-10T02:01:49;18.70;99.90
13682;DHT22;6913;49.892;7.936;2023-06-10T02:04:15;18.60;99.90
13682;DHT22;6913;49.892;7.936;2023-06-10T02:06:43;18.60;99.90
13682;DHT22;6913;49.892;7.936;2023-06-10T02:11:39;17.70;99.90
13682;DHT22;6913;49.892;7.936;2023-06-10T02:14:06;17.70;99.90
13682;DHT22;6913;49.892;7.936;2023-06-10T02:16:33;17.50;99.90
13682;DHT22;6913;49.892;7.936;2023-06-10T02:19:00;17.60;99.90
13682;DHT22;6913;49.892;7.936;2023-06-10T02:21:28;17.80;99.90
13682;DHT22;6913;49.892;7.936;2023-06-10T02:23:55;17.90;99.90
13682;DHT22;6913;49.892;7.936;2023-06-10T02:26:22;17.30;99.90
13682;DHT22;6913;49.892;7.936;2023-06-10T02:28:52;17.20;99.90
13682;DHT22;6913;49.892;7.936;2023-06-10T02:31:20;17.20;99.90
13682;DHT22;6913;49.892;7.936;2023-06-10T02:33:49;17.10;99.90
13682;DHT22;6913;49.892;7.936;2023-06-10T02:36:16;16.60;99.90
13682;DHT22;6913;49.892;7.936;2023-06-10T02:38:43;16.60;99.90
13682;DHT22;6913;49.892;7.936;2023-06-10T02:41:10;16.70;99.90
13682;DHT22;6913;49.892;7.936;2023-06-10T02:43:37;16.60;99.90
13682;DHT22;6913;49.892;7.936;2023-06-10T02:46:06;16.70;99.90
13682;DHT22;6913;49.892;7.936;2023-06-10T02:48:40;16.70;99.90
13682;DHT22;6913;49.892;7.936;2023-06-10T02:51:08;16.60;99.90
13682;DHT22;6913;49.892;7.936;2023-06-10T02:53:35;16.60;99.90
13682;DHT22;6913;49.892;7.936;2023-06-10T02:56:02;16.30;99.90
13682;DHT22;6913;49.892;7.936;2023-06-10T02:58:29;16.30;99.90
13682;DHT22;6913;49.892;7.936;2023-06-10T03:00:56;16.00;99.90
13682;DHT22;6913;49.892;7.936;2023-06-10T03:03:25;16.10;99.90
13682;DHT22;6913;49.892;7.936;2023-06-10T03:05:53;16.30;99.90
13682;DHT22;6913;49.892;7.936;2023-06-10T03:08:20;16.10;99.90
13682;DHT22;6913;49.892;7.936;2023-06-10T03:10:47;16.20;99.90
13682;DHT22;6913;49.892;7.936;2023-06-10T03:13:14;16.20;99.90
13682;DHT22;6913;49.892;7.936;2023-06-10T03:15:41;16.30;99.90
13682;DHT22;6913;49.892;7.936;2023-06-10T03:18:08;16.20;99.90
13682;DHT22;6913;49.892;7.936;2023-06-10T03:20:36;16.20;99.90
13682;DHT22;6913;49.892;7.936;2023-06-10T03:23:04;16.20;99.90
13682;DHT22;6913;49.892;7.936;2023-06-10T03:25:31;15.90;99.90
13682;DHT22;6913;49.892;7.936;2023-06-10T03:27:58;15.90;99.90
13682;DHT22;6913;49.892;7.936;2023-06-10T03:30:25;16.00;99.90
13682;DHT22;6913;49.892;7.936;2023-06-10T03:32:52;15.80;99.90
13682;DHT22;6913;49.892;7.936;2023-06-10T03:35:19;15.90;99.90
13682;DHT22;6913;49.892;7.936;2023-06-10T03:37:47;15.90;99.90
13682;DHT22;6913;49.892;7.936;2023-06-10T03:40:14;15.90;99.90
13682;DHT22;6913;49.892;7.936;2023-06-10T03:42:41;15.90;99.90
13682;DHT22;6913;49.892;7.936;2023-06-10T03:45:10;16.00;99.90
13682;DHT22;6913;49.892;7.936;2023-06-10T03:47:37;15.40;99.90
13682;DHT22;6913;49.892;7.936;2023-06-10T03:50:06;15.50;99.90
13682;DHT22;6913;49.892;7.936;2023-06-10T03:52:34;15.50;99.90
13682;DHT22;6913;49.892;7.936;2023-06-10T03:55:03;15.50;99.90
13682;DHT22;6913;49.892;7.936;2023-06-10T03:57:30;15.60;99.90
13682;DHT22;6913;49.892;7.936;2023-06-10T03:59:58;15.70;99.90
13682;DHT22;6913;49.892;7.936;2023-06-10T04:02:25;15.90;99.90
13682;DHT22;6913;49.892;7.936;2023-06-10T04:04:51;16.00;99.90
13682;DHT22;6913;49.892;7.936;2023-06-10T04:07:18;16.30;99.90
13682;DHT22;6913;49.892;7.936;2023-06-10T04:09:45;16.40;99.90
13682;DHT22;6913;49.892;7.936;2023-06-10T04:12:14;16.60;99.90
13682;DHT22;6913;49.892;7.936;2023-06-10T04:14:42;16.60;99.90
13682;DHT22;6913;49.892;7.936;2023-06-10T04:17:09;16.70;99.90
13682;DHT22;6913;49.892;7.936;2023-06-10T04:19:36;16.90;99.90
13682;DHT22;6913;49.892;7.936;2023-06-10T04:22:03;16.70;99.90
13682;DHT22;6913;49.892;7.936;2023-06-10T04:24:30;17.00;99.90
13682;DHT22;6913;49.892;7.936;2023-06-10T04:26:57;17.00;99.90
13682;DHT22;6913;49.892;7.936;2023-06-10T04:29:26;17.40;99.90
13682;DHT22;6913;49.892;7.936;2023-06-10T04:31:52;17.10;99.90
13682;DHT22;6913;49.892;7.936;2023-06-10T04:34:23;17.30;99.90
13682;DHT22;6913;49.892;7.936;2023-06-10T04:36:51;17.60;99.90
13682;DHT22;6913;49.892;7.936;2023-06-10T04:39:18;17.90;99.90
13682;DHT22;6913;49.892;7.936;2023-06-10T04:41:45;17.70;99.90
13682;DHT22;6913;49.892;7.936;2023-06-10T04:44:12;17.80;99.90
13682;DHT22;6913;49.892;7.936;2023-06-10T04:46:40;18.20;99.90
13682;DHT22;6913;49.892;7.936;2023-06-10T04:49:07;18.70;99.90
13682;DHT22;6913;49.892;7.936;2023-06-10T04:51:34;18.80;99.90
13682;DHT22;6913;49.892;7.936;2023-06-10T04:54:01;19.20;99.90
13682;DHT22;6913;49.892;7.936;2023-06-10T04:56:29;19.60;99.90
13682;DHT22;6913;49.892;7.936;2023-06-10T04:58:56;19.40;99.90
13682;DHT22;6913;49.892;7.936;2023-06-10T05:01:23;19.60;99.90
13682;DHT22;6913;49.892;7.936;2023-06-10T05:03:51;19.90;99.90
13682;DHT22;6913;49.892;7.936;2023-06-10T05:06:18;20.00;99.90
13682;DHT22;6913;49.892;7.936;2023-06-10T05:08:45;20.20;99.90
13682;DHT22;6913;49.892;7.936;2023-06-10T05:11:12;20.20;99.90
13682;DHT22;6913;49.892;7.936;2023-06-10T05:13:39;20.60;99.90
13682;DHT22;6913;49.892;7.936;2023-06-10T05:16:07;21.00;99.90
13682;DHT22;6913;49.892;7.936;2023-06-10T05:18:34;21.80;99.90
13682;DHT22;6913;49.892;7.936;2023-06-10T05:21:03;22.30;99.90
13682;DHT22;6913;49.892;7.936;2023-06-10T05:23:30;22.30;99.90
13682;DHT22;6913;49.892;7.936;2023-06-10T05:25:57;22.40;99.90
13682;DHT22;6913;49.892;7.936;2023-06-10T05:28:25;23.00;99.90
13682;DHT22;6913;49.892;7.936;2023-06-10T05:30:52;23.70;99.90
13682;DHT22;6913;49.892;7.936;2023-06-10T05:33:19;24.00;99.90
13682;DHT22;6913;49.892;7.936;2023-06-10T05:35:46;24.30;99.90
13682;DHT22;6913;49.892;7.936;2023-06-10T05:38:14;24.70;99.90
13682;DHT22;6913;49.892;7.936;2023-06-10T05:40:41;24.30;99.90
13682;DHT22;6913;49.892;7.936;2023-06-10T05:43:08;25.00;99.90
13682;DHT22;6913;49.892;7.936;2023-06-10T05:45:35;25.20;99.90
13682;DHT22;6913;49.892;7.936;2023-06-10T05:48:02;25.50;99.90
13682;DHT22;6913;49.892;7.936;2023-06-10T05:50:29;25.50;99.90
13682;DHT22;6913;49.892;7.936;2023-06-10T05:52:56;25.60;99.90
13682;DHT22;6913;49.892;7.936;2023-06-10T05:55:24;25.80;99.90
13682;DHT22;6913;49.892;7.936;2023-06-10T05:57:58;25.40;99.90
13682;DHT22;6913;49.892;7.936;2023-06-10T06:00:26;25.70;99.90
13682;DHT22;6913;49.892;7.936;2023-06-10T06:02:53;26.10;99.90
13682;DHT22;6913;49.892;7.936;2023-06-10T06:05:22;26.60;99.90
13682;DHT22;6913;49.892;7.936;2023-06-10T06:07:49;26.20;99.90
13682;DHT22;6913;49.892;7.936;2023-06-10T06:10:17;26.90;99.90
13682;DHT22;6913;49.892;7.936;2023-06-10T06:12:45;27.20;99.90
13682;DHT22;6913;49.892;7.936;2023-06-10T06:15:12;27.60;99.90
13682;DHT22;6913;49.892;7.936;2023-06-10T06:17:39;27.60;99.90
13682;DHT22;6913;49.892;7.936;2023-06-10T06:20:10;27.60;99.90
13682;DHT22;6913;49.892;7.936;2023-06-10T06:22:37;28.10;99.90
13682;DHT22;6913;49.892;7.936;2023-06-10T06:25:04;27.90;99.90
13682;DHT22;6913;49.892;7.936;2023-06-10T06:27:32;27.20;99.90
13682;DHT22;6913;49.892;7.936;2023-06-10T06:30:00;28.00;99.90
13682;DHT22;6913;49.892;7.936;2023-06-10T06:32:27;28.30;99.60
13682;DHT22;6913;49.892;7.936;2023-06-10T06:34:54;28.00;99.90
13682;DHT22;6913;49.892;7.936;2023-06-10T06:37:21;28.80;97.40
13682;DHT22;6913;49.892;7.936;2023-06-10T06:39:50;29.30;97.30
13682;DHT22;6913;49.892;7.936;2023-06-10T06:42:16;29.60;97.70
13682;DHT22;6913;49.892;7.936;2023-06-10T06:44:44;28.60;96.00
13682;DHT22;6913;49.892;7.936;2023-06-10T06:47:12;27.30;98.50
13682;DHT22;6913;49.892;7.936;2023-06-10T06:49:39;27.60;98.90
13682;DHT22;6913;49.892;7.936;2023-06-10T06:52:06;28.10;99.10
13682;DHT22;6913;49.892;7.936;2023-06-10T06:54:33;27.60;98.70
13682;DHT22;6913;49.892;7.936;2023-06-10T06:57:00;28.30;97.50
13682;DHT22;6913;49.892;7.936;2023-06-10T06:59:27;28.10;99.30
13682;DHT22;6913;49.892;7.936;2023-06-10T07:01:54;28.60;97.30
13682;DHT22;6913;49.892;7.936;2023-06-10T07:04:23;29.00;95.40
13682;DHT22;6913;49.892;7.936;2023-06-10T07:06:50;29.30;95.40
13682;DHT22;6913;49.892;7.936;2023-06-10T07:09:17;29.00;96.30
13682;DHT22;6913;49.892;7.936;2023-06-10T07:11:43;27.40;96.40
13682;DHT22;6913;49.892;7.936;2023-06-10T07:14:10;26.80;99.00
13682;DHT22;6913;49.892;7.936;2023-06-10T07:16:37;27.70;99.20
13682;DHT22;6913;49.892;7.936;2023-06-10T07:19:04;27.60;97.90
13682;DHT22;6913;49.892;7.936;2023-06-10T07:21:33;28.10;98.10
13682;DHT22;6913;49.892;7.936;2023-06-10T07:24:01;28.70;95.20
13682;DHT22;6913;49.892;7.936;2023-06-10T07:26:28;28.40;97.20
13682;DHT22;6913;49.892;7.936;2023-06-10T07:28:55;27.90;95.50
13682;DHT22;6913;49.892;7.936;2023-06-10T07:31:23;27.10;97.30
13682;DHT22;6913;49.892;7.936;2023-06-10T07:33:50;27.30;98.70
13682;DHT22;6913;49.892;7.936;2023-06-10T07:36:17;27.00;99.00
13682;DHT22;6913;49.892;7.936;2023-06-10T07:38:45;27.30;96.50
13682;DHT22;6913;49.892;7.936;2023-06-10T07:41:12;26.20;99.40
13682;DHT22;6913;49.892;7.936;2023-06-10T07:43:39;25.90;98.80
13682;DHT22;6913;49.892;7.936;2023-06-10T07:46:06;26.10;99.90
13682;DHT22;6913;49.892;7.936;2023-06-10T07:48:33;26.70;99.90
13682;DHT22;6913;49.892;7.936;2023-06-10T07:51:00;26.70;99.50
13682;DHT22;6913;49.892;7.936;2023-06-10T07:53:27;26.50;99.40
13682;DHT22;6913;49.892;7.936;2023-06-10T07:55:55;26.80;97.10
13682;DHT22;6913;49.892;7.936;2023-06-10T07:58:22;27.20;99.20
13682;DHT22;6913;49.892;7.936;2023-06-10T08:00:49;27.20;99.40
13682;DHT22;6913;49.892;7.936;2023-06-10T08:03:16;28.60;97.40
13682;DHT22;6913;49.892;7.936;2023-06-10T08:05:43;29.70;96.10
13682;DHT22;6913;49.892;7.936;2023-06-10T08:08:10;30.00;94.30
13682;DHT22;6913;49.892;7.936;2023-06-10T08:10:37;30.20;94.10
13682;DHT22;6913;49.892;7.936;2023-06-10T08:13:05;30.60;94.30
13682;DHT22;6913;49.892;7.936;2023-06-10T08:15:32;31.20;90.40
13682;DHT22;6913;49.892;7.936;2023-06-10T08:17:59;30.60;92.00
13682;DHT22;6913;49.892;7.936;2023-06-10T08:20:26;30.90;90.10
13682;DHT22;6913;49.892;7.936;2023-06-10T08:22:53;31.30;90.00
13682;DHT22;6913;49.892;7.936;2023-06-10T08:25:20;31.90;86.00
13682;DHT22;6913;49.892;7.936;2023-06-10T08:27:48;31.80;84.20
13682;DHT22;6913;49.892;7.936;2023-06-10T08:30:17;30.60;86.20
13682;DHT22;6913;49.892;7.936;2023-06-10T08:32:44;30.60;87.10
13682;DHT22;6913;49.892;7.936;2023-06-10T08:35:11;29.70;91.60
13682;DHT22;6913;49.892;7.936;2023-06-10T08:37:38;28.40;90.40
13682;DHT22;6913;49.892;7.936;2023-06-10T08:40:06;28.50;93.30
13682;DHT22;6913;49.892;7.936;2023-06-10T08:42:42;28.20;95.20
13682;DHT22;6913;49.892;7.936;2023-06-10T08:45:15;29.40;92.40
13682;DHT22;6913;49.892;7.936;2023-06-10T08:47:45;30.20;91.70
13682;DHT22;6913;49.892;7.936;2023-06-10T08:50:12;30.70;90.00
13682;DHT22;6913;49.892;7.936;2023-06-10T08:52:43;31.10;90.00
13682;DHT22;6913;49.892;7.936;2023-06-10T08:55:12;31.60;85.10
13682;DHT22;6913;49.892;7.936;2023-06-10T08:57:41;32.10;82.10
13682;DHT22;6913;49.892;7.936;2023-06-10T09:00:09;31.50;86.90
13682;DHT22;6913;49.892;7.936;2023-06-10T09:02:36;31.00;83.80
13682;DHT22;6913;49.892;7.936;2023-06-10T09:05:05;30.80;80.60
13682;DHT22;6913;49.892;7.936;2023-06-10T09:07:32;29.90;85.80
13682;DHT22;6913;49.892;7.936;2023-06-10T09:10:01;29.00;88.80
13682;DHT22;6913;49.892;7.936;2023-06-10T09:12:32;29.20;90.60
13682;DHT22;6913;49.892;7.936;2023-06-10T09:14:59;29.10;90.50
13682;DHT22;6913;49.892;7.936;2023-06-10T09:17:26;28.90;87.90
13682;DHT22;6913;49.892;7.936;2023-06-10T09:19:54;28.90;90.10
13682;DHT22;6913;49.892;7.936;2023-06-10T09:22:23;29.50;89.50
13682;DHT22;6913;49.892;7.936;2023-06-10T09:24:52;29.10;89.70
13682;DHT22;6913;49.892;7.936;2023-06-10T09:27:29;29.60;87.30
13682;DHT22;6913;49.892;7.936;2023-06-10T09:29:59;29.40;87.40
13682;DHT22;6913;49.892;7.936;2023-06-10T09:32:26;29.70;92.40
13682;DHT22;6913;49.892;7.936;2023-06-10T09:34:55;28.90;85.90
13682;DHT22;6913;49.892;7.936;2023-06-10T09:37:23;28.80;90.20
13682;DHT22;6913;49.892;7.936;2023-06-10T09:40:04;28.80;90.60
13682;DHT22;6913;49.892;7.936;2023-06-10T09:42:35;29.90;87.50
13682;DHT22;6913;49.892;7.936;2023-06-10T09:45:03;29.90;90.10
13682;DHT22;6913;49.892;7.936;2023-06-10T09:47:30;29.60;85.50
13682;DHT22;6913;49.892;7.936;2023-06-10T09:49:57;29.80;86.10
13682;DHT22;6913;49.892;7.936;2023-06-10T09:52:28;29.50;84.40
13682;DHT22;6913;49.892;7.936;2023-06-10T09:54:59;28.70;87.20
13682;DHT22;6913;49.892;7.936;2023-06-10T09:57:30;28.90;91.40
13682;DHT22;6913;49.892;7.936;2023-06-10T09:59:58;29.50;87.70
13682;DHT22;6913;49.892;7.936;2023-06-10T10:02:25;29.80;87.70
13682;DHT22;6913;49.892;7.936;2023-06-10T10:04:51;29.50;81.00
13682;DHT22;6913;49.892;7.936;2023-06-10T10:07:18;29.50;90.00
13682;DHT22;6913;49.892;7.936;2023-06-10T10:09:47;30.00;83.50
13682;DHT22;6913;49.892;7.936;2023-06-10T10:12:15;29.30;84.80
13682;DHT22;6913;49.892;7.936;2023-06-10T10:14:46;29.70;81.00
13682;DHT22;6913;49.892;7.936;2023-06-10T10:17:15;29.70;89.40
13682;DHT22;6913;49.892;7.936;2023-06-10T10:19:46;29.40;85.10
13682;DHT22;6913;49.892;7.936;2023-06-10T10:22:18;28.80;85.70
13682;DHT22;6913;49.892;7.936;2023-06-10T10:24:50;29.50;84.90
13682;DHT22;6913;49.892;7.936;2023-06-10T10:27:21;29.70;84.00
13682;DHT22;6913;49.892;7.936;2023-06-10T10:29:52;29.20;87.90
13682;DHT22;6913;49.892;7.936;2023-06-10T10:32:22;30.20;86.90
13682;DHT22;6913;49.892;7.936;2023-06-10T10:34:58;30.50;79.60
13682;DHT22;6913;49.892;7.936;2023-06-10T10:37:31;30.30;82.00
13682;DHT22;6913;49.892;7.936;2023-06-10T10:40:04;29.70;81.20
13682;DHT22;6913;49.892;7.936;2023-06-10T10:42:34;29.70;86.00
13682;DHT22;6913;49.892;7.936;2023-06-10T10:45:02;29.60;85.70
13682;DHT22;6913;49.892;7.936;2023-06-10T10:47:31;29.50;83.40
13682;DHT22;6913;49.892;7.936;2023-06-10T10:49:59;29.70;84.00
13682;DHT22;6913;49.892;7.936;2023-06-10T10:52:41;30.40;82.60
13682;DHT22;6913;49.892;7.936;2023-06-10T10:55:14;30.40;80.50
13682;DHT22;6913;49.892;7.936;2023-06-10T10:57:41;30.00;83.50
13682;DHT22;6913;49.892;7.936;2023-06-10T11:00:09;29.50;83.00
13682;DHT22;6913;49.892;7.936;2023-06-10T11:02:40;29.70;81.10
13682;DHT22;6913;49.892;7.936;2023-06-10T11:05:09;29.60;77.70
13682;DHT22;6913;49.892;7.936;2023-06-10T11:07:37;29.50;81.20
13682;DHT22;6913;49.892;7.936;2023-06-10T11:10:07;29.00;85.10
13682;DHT22;6913;49.892;7.936;2023-06-10T11:12:51;29.60;82.30
13682;DHT22;6913;49.892;7.936;2023-06-10T11:15:20;29.90;83.10
13682;DHT22;6913;49.892;7.936;2023-06-10T11:18:15;29.70;81.10
13682;DHT22;6913;49.892;7.936;2023-06-10T11:20:46;29.80;83.60
13682;DHT22;6913;49.892;7.936;2023-06-10T11:23:40;29.90;85.30
13682;DHT22;6913;49.892;7.936;2023-06-10T11:26:22;29.70;81.10
13682;DHT22;6913;49.892;7.936;2023-06-10T11:29:06;30.40;83.00
13682;DHT22;6913;49.892;7.936;2023-06-10T11:31:42;31.20;79.50
13682;DHT22;6913;49.892;7.936;2023-06-10T11:34:10;31.50;78.40
13682;DHT22;6913;49.892;7.936;2023-06-10T11:36:39;31.50;78.30
13682;DHT22;6913;49.892;7.936;2023-06-10T11:39:11;31.60;77.90
13682;DHT22;6913;49.892;7.936;2023-06-10T11:41:39;31.40;75.90
13682;DHT22;6913;49.892;7.936;2023-06-10T11:44:12;31.90;75.80
13682;DHT22;6913;49.892;7.936;2023-06-10T11:46:40;31.10;74.50
13682;DHT22;6913;49.892;7.936;2023-06-10T11:49:08;31.20;71.80
13682;DHT22;6913;49.892;7.936;2023-06-10T11:51:36;30.80;72.80
13682;DHT22;6913;49.892;7.936;2023-06-10T11:54:04;30.70;74.30
13682;DHT22;6913;49.892;7.936;2023-06-10T11:56:32;30.20;78.20
13682;DHT22;6913;49.892;7.936;2023-06-10T11:59:00;30.30;78.50
13682;DHT22;6913;49.892;7.936;2023-06-10T12:01:33;31.10;74.70
13682;DHT22;6913;49.892;7.936;2023-06-10T12:04:03;31.70;76.10
13682;DHT22;6913;49.892;7.936;2023-06-10T12:06:41;31.40;74.70
13682;DHT22;6913;49.892;7.936;2023-06-10T12:09:18;30.30;74.00
13682;DHT22;6913;49.892;7.936;2023-06-10T12:11:52;30.70;76.60
13682;DHT22;6913;49.892;7.936;2023-06-10T12:14:51;30.70;76.20
13682;DHT22;6913;49.892;7.936;2023-06-10T12:17:21;31.90;72.90
13682;DHT22;6913;49.892;7.936;2023-06-10T12:19:48;31.00;76.30
13682;DHT22;6913;49.892;7.936;2023-06-10T12:22:15;31.10;72.30
13682;DHT22;6913;49.892;7.936;2023-06-10T12:24:45;30.80;77.60
13682;DHT22;6913;49.892;7.936;2023-06-10T12:27:12;30.90;72.80
13682;DHT22;6913;49.892;7.936;2023-06-10T12:29:50;30.80;75.70
13682;DHT22;6913;49.892;7.936;2023-06-10T12:32:22;30.70;75.80
13682;DHT22;6913;49.892;7.936;2023-06-10T12:35:02;30.50;75.10
13682;DHT22;6913;49.892;7.936;2023-06-10T12:37:30;29.90;77.60
13682;DHT22;6913;49.892;7.936;2023-06-10T12:40:00;30.30;77.00
13682;DHT22;6913;49.892;7.936;2023-06-10T12:42:28;30.70;74.80
13682;DHT22;6913;49.892;7.936;2023-06-10T12:44:56;30.80;75.00
13682;DHT22;6913;49.892;7.936;2023-06-10T12:47:31;30.80;79.10
13682;DHT22;6913;49.892;7.936;2023-06-10T12:50:00;31.40;77.40
13682;DHT22;6913;49.892;7.936;2023-06-10T12:52:27;31.40;73.60
13682;DHT22;6913;49.892;7.936;2023-06-10T12:54:54;31.10;74.50
13682;DHT22;6913;49.892;7.936;2023-06-10T12:57:22;30.80;72.10
13682;DHT22;6913;49.892;7.936;2023-06-10T12:59:50;30.90;75.30
13682;DHT22;6913;49.892;7.936;2023-06-10T13:02:18;31.10;71.40
13682;DHT22;6913;49.892;7.936;2023-06-10T13:04:47;31.80;73.10
13682;DHT22;6913;49.892;7.936;2023-06-10T13:07:15;32.70;76.90
13682;DHT22;6913;49.892;7.936;2023-06-10T13:09:42;33.10;71.00
13682;DHT22;6913;49.892;7.936;2023-06-10T13:12:09;32.60;69.00
13682;DHT22;6913;49.892;7.936;2023-06-10T13:14:37;31.60;68.70
13682;DHT22;6913;49.892;7.936;2023-06-10T13:17:04;30.30;70.10
13682;DHT22;6913;49.892;7.936;2023-06-10T13:19:32;30.20;73.50
13682;DHT22;6913;49.892;7.936;2023-06-10T13:22:01;31.10;70.40
13682;DHT22;6913;49.892;7.936;2023-06-10T13:24:28;31.40;71.00
13682;DHT22;6913;49.892;7.936;2023-06-10T13:26:55;31.30;68.90
13682;DHT22;6913;49.892;7.936;2023-06-10T13:29:22;31.70;66.80
13682;DHT22;6913;49.892;7.936;2023-06-10T13:31:49;31.80;65.90
13682;DHT22;6913;49.892;7.936;2023-06-10T13:34:16;32.20;66.50
13682;DHT22;6913;49.892;7.936;2023-06-10T13:36:42;31.80;65.10
13682;DHT22;6913;49.892;7.936;2023-06-10T13:39:11;30.90;67.10
13682;DHT22;6913;49.892;7.936;2023-06-10T13:41:41;30.10;74.70
13682;DHT22;6913;49.892;7.936;2023-06-10T13:44:09;29.30;73.30
13682;DHT22;6913;49.892;7.936;2023-06-10T13:46:36;29.30;70.70
13682;DHT22;6913;49.892;7.936;2023-06-10T13:49:02;29.30;74.80
13682;DHT22;6913;49.892;7.936;2023-06-10T13:51:29;29.00;71.40
13682;DHT22;6913;49.892;7.936;2023-06-10T13:53:57;28.90;73.70
13682;DHT22;6913;49.892;7.936;2023-06-10T13:56:25;28.70;71.60
13682;DHT22;6913;49.892;7.936;2023-06-10T13:58:52;28.50;73.80
13682;DHT22;6913;49.892;7.936;2023-06-10T14:01:22;28.50;74.40
13682;DHT22;6913;49.892;7.936;2023-06-10T14:03:49;28.50;77.30
13682;DHT22;6913;49.892;7.936;2023-06-10T14:06:16;28.50;73.60
13682;DHT22;6913;49.892;7.936;2023-06-10T14:08:44;28.50;75.00
13682;DHT22;6913;49.892;7.936;2023-06-10T14:11:11;28.50;78.60
13682;DHT22;6913;49.892;7.936;2023-06-10T14:13:39;28.50;76.30
13682;DHT22;6913;49.892;7.936;2023-06-10T14:16:06;28.60;75.70
13682;DHT22;6913;49.892;7.936;2023-06-10T14:18:33;28.60;74.20
13682;DHT22;6913;49.892;7.936;2023-06-10T14:21:00;28.80;76.00
13682;DHT22;6913;49.892;7.936;2023-06-10T14:23:27;28.70;78.10
13682;DHT22;6913;49.892;7.936;2023-06-10T14:25:54;28.60;75.20
13682;DHT22;6913;49.892;7.936;2023-06-10T14:28:20;28.70;71.50
13682;DHT22;6913;49.892;7.936;2023-06-10T14:30:50;28.90;75.10
13682;DHT22;6913;49.892;7.936;2023-06-10T14:33:18;29.10;70.00
13682;DHT22;6913;49.892;7.936;2023-06-10T14:35:44;29.10;68.80
13682;DHT22;6913;49.892;7.936;2023-06-10T14:38:12;29.50;70.10
13682;DHT22;6913;49.892;7.936;2023-06-10T14:40:38;30.00;73.50
13682;DHT22;6913;49.892;7.936;2023-06-10T14:43:05;30.30;72.00
13682;DHT22;6913;49.892;7.936;2023-06-10T14:45:35;30.40;74.00
13682;DHT22;6913;49.892;7.936;2023-06-10T14:48:05;30.60;72.30
13682;DHT22;6913;49.892;7.936;2023-06-10T14:50:33;30.60;70.00
13682;DHT22;6913;49.892;7.936;2023-06-10T14:53:01;30.50;67.30
13682;DHT22;6913;49.892;7.936;2023-06-10T14:55:28;30.60;71.10
13682;DHT22;6913;49.892;7.936;2023-06-10T14:57:55;31.00;62.70
13682;DHT22;6913;49.892;7.936;2023-06-10T15:00:25;31.00;68.70
13682;DHT22;6913;49.892;7.936;2023-06-10T15:02:52;30.50;62.00
13682;DHT22;6913;49.892;7.936;2023-06-10T15:05:22;30.20;68.80
13682;DHT22;6913;49.892;7.936;2023-06-10T15:07:50;30.10;67.40
13682;DHT22;6913;49.892;7.936;2023-06-10T15:10:17;30.20;68.50
13682;DHT22;6913;49.892;7.936;2023-06-10T15:12:46;30.50;69.70
13682;DHT22;6913;49.892;7.936;2023-06-10T15:15:13;30.50;69.40
13682;DHT22;6913;49.892;7.936;2023-06-10T15:17:40;30.30;68.20
13682;DHT22;6913;49.892;7.936;2023-06-10T15:20:08;30.10;70.40
13682;DHT22;6913;49.892;7.936;2023-06-10T15:22:36;30.50;67.90
13682;DHT22;6913;49.892;7.936;2023-06-10T15:25:04;30.70;64.90
13682;DHT22;6913;49.892;7.936;2023-06-10T15:27:31;31.00;63.80
13682;DHT22;6913;49.892;7.936;2023-06-10T15:29:58;31.50;62.70
13682;DHT22;6913;49.892;7.936;2023-06-10T15:32:25;31.90;59.60
13682;DHT22;6913;49.892;7.936;2023-06-10T15:34:52;31.40;62.20
13682;DHT22;6913;49.892;7.936;2023-06-10T15:37:19;31.30;59.10
13682;DHT22;6913;49.892;7.936;2023-06-10T15:39:48;31.60;59.80
13682;DHT22;6913;49.892;7.936;2023-06-10T15:42:15;31.60;62.40
13682;DHT22;6913;49.892;7.936;2023-06-10T15:44:42;31.20;60.90
13682;DHT22;6913;49.892;7.936;2023-06-10T15:47:09;30.80;64.00
13682;DHT22;6913;49.892;7.936;2023-06-10T15:49:36;30.50;64.00
13682;DHT22;6913;49.892;7.936;2023-06-10T15:52:04;30.30;63.90
13682;DHT22;6913;49.892;7.936;2023-06-10T15:54:31;29.90;64.40